sensor_id;sensor_type;location;lat;lon;timestamp;P1;durP1;ratioP1;P2;durP2;ratioP2
30036;SDS011;36325;51.512;-0.382;2023-09-07T00:02:10;81.57;;;50.05;;
30036;SDS011;36325;51.512;-0.382;2023-09-07T00:04:38;83.68;;;50.05;;
30036;SDS011;36325;51.512;-0.382;2023-09-07T00:07:06;89.55;;;50.88;;
30036;SDS011;36325;51.512;-0.382;2023-09-07T00:09:33;83.38;;;50.78;;
30036;SDS011;36325;51.512;-0.382;2023-09-07T00:12:00;88.28;;;51.10;;
30036;SDS011;36325;51.512;-0.382;2023-09-07T00:14:28;79.63;;;49.50;;
30036;SDS011;36325;51.512;-0.382;2023-09-07T00:16:55;82.93;;;49.95;;
30036;SDS011;36325;51.512;-0.382;2023-09-07T00:19:24;78.15;;;48.38;;
30036;SDS011;36325;51.512;-0.382;2023-09-07T00:21:52;75.38;;;48.67;;
30036;SDS011;36325;51.512;-0.382;2023-09-07T00:24:19;80.88;;;49.58;;
30036;SDS011;36325;51.512;-0.382;2023-09-07T00:26:47;72.88;;;44.67;;
30036;SDS011;36325;51.512;-0.382;2023-09-07T00:29:15;73.57;;;46.08;;
30036;SDS011;36325;51.512;-0.382;2023-09-07T00:31:43;83.20;;;46.20;;
30036;SDS011;36325;51.512;-0.382;2023-09-07T00:34:10;76.15;;;45.58;;
30036;SDS011;36325;51.512;-0.382;2023-09-07T00:36:37;82.93;;;46.17;;
30036;SDS011;36325;51.512;-0.382;2023-09-07T00:39:07;75.15;;;46.90;;
30036;SDS011;36325;51.512;-0.382;2023-09-07T00:41:44;78.05;;;48.90;;
30036;SDS011;36325;51.512;-0.382;2023-09-07T00:44:13;79.18;;;48.65;;
30036;SDS011;36325;51.512;-0.382;2023-09-07T00:46:41;77.95;;;47.40;;
30036;SDS011;36325;51.512;-0.382;2023-09-07T00:49:11;81.65;;;48.53;;
30036;SDS011;36325;51.512;-0.382;2023-09-07T00:51:39;77.13;;;47.42;;
30036;SDS011;36325;51.512;-0.382;2023-09-07T00:54:08;79.25;;;49.25;;
30036;SDS011;36325;51.512;-0.382;2023-09-07T00:56:36;84.22;;;50.08;;
30036;SDS011;36325;51.512;-0.382;2023-09-07T00:59:04;87.68;;;52.45;;
30036;SDS011;36325;51.512;-0.382;2023-09-07T01:01:34;86.35;;;50.63;;
30036;SDS011;36325;51.512;-0.382;2023-09-07T01:04:03;94.25;;;52.35;;
30036;SDS011;36325;51.512;-0.382;2023-09-07T01:06:40;81.50;;;49.75;;
30036;SDS011;36325;51.512;-0.382;2023-09-07T01:09:17;78.05;;;47.55;;
30036;SDS011;36325;51.512;-0.382;2023-09-07T01:11:48;88.93;;;50.90;;
30036;SDS011;36325;51.512;-0.382;2023-09-07T01:14:17;76.30;;;48.17;;
30036;SDS011;36325;51.512;-0.382;2023-09-07T01:16:45;86.97;;;51.08;;
30036;SDS011;36325;51.512;-0.382;2023-09-07T01:19:12;85.47;;;49.80;;
30036;SDS011;36325;51.512;-0.382;2023-09-07T01:21:40;79.80;;;47.20;;
30036;SDS011;36325;51.512;-0.382;2023-09-07T01:24:09;84.47;;;51.33;;
30036;SDS011;36325;51.512;-0.382;2023-09-07T01:26:38;85.05;;;50.58;;
30036;SDS011;36325;51.512;-0.382;2023-09-07T01:29:09;86.38;;;47.33;;
30036;SDS011;36325;51.512;-0.382;2023-09-07T01:31:39;80.88;;;47.13;;
30036;SDS011;36325;51.512;-0.382;2023-09-07T01:34:07;81.45;;;46.10;;
30036;SDS011;36325;51.512;-0.382;2023-09-07T01:36:35;76.32;;;46.58;;
30036;SDS011;36325;51.512;-0.382;2023-09-07T01:39:03;73.80;;;45.85;;
30036;SDS011;36325;51.512;-0.382;2023-09-07T01:41:33;73.63;;;47.22;;
30036;SDS011;36325;51.512;-0.382;2023-09-07T01:44:00;76.88;;;46.50;;
30036;SDS011;36325;51.512;-0.382;2023-09-07T01:46:32;82.80;;;47.40;;
30036;SDS011;36325;51.512;-0.382;2023-09-07T01:49:00;83.70;;;47.40;;
30036;SDS011;36325;51.512;-0.382;2023-09-07T01:51:27;74.78;;;46.28;;
30036;SDS011;36325;51.512;-0.382;2023-09-07T01:53:55;76.03;;;46.17;;
30036;SDS011;36325;51.512;-0.382;2023-09-07T01:56:22;77.55;;;48.13;;
30036;SDS011;36325;51.512;-0.382;2023-09-07T01:58:50;82.68;;;46.92;;
30036;SDS011;36325;51.512;-0.382;2023-09-07T02:01:32;79.90;;;48.50;;
30036;SDS011;36325;51.512;-0.382;2023-09-07T02:04:03;79.73;;;48.03;;
30036;SDS011;36325;51.512;-0.382;2023-09-07T02:06:31;85.55;;;47.78;;
30036;SDS011;36325;51.512;-0.382;2023-09-07T02:08:59;82.05;;;47.42;;
30036;SDS011;36325;51.512;-0.382;2023-09-07T02:11:28;77.55;;;47.17;;
30036;SDS011;36325;51.512;-0.382;2023-09-07T02:13:55;83.20;;;46.70;;
30036;SDS011;36325;51.512;-0.382;2023-09-07T02:16:23;78.15;;;48.78;;
30036;SDS011;36325;51.512;-0.382;2023-09-07T02:18:59;77.43;;;46.10;;
30036;SDS011;36325;51.512;-0.382;2023-09-07T02:21:34;77.88;;;47.38;;
30036;SDS011;36325;51.512;-0.382;2023-09-07T02:24:01;75.43;;;46.40;;
30036;SDS011;36325;51.512;-0.382;2023-09-07T02:26:30;75.28;;;46.60;;
30036;SDS011;36325;51.512;-0.382;2023-09-07T02:28:58;79.00;;;46.50;;
30036;SDS011;36325;51.512;-0.382;2023-09-07T02:31:26;81.72;;;46.53;;
30036;SDS011;36325;51.512;-0.382;2023-09-07T02:33:53;74.60;;;46.95;;
30036;SDS011;36325;51.512;-0.382;2023-09-07T02:36:21;80.70;;;45.97;;
30036;SDS011;36325;51.512;-0.382;2023-09-07T02:38:49;71.97;;;44.63;;
30036;SDS011;36325;51.512;-0.382;2023-09-07T02:41:17;78.07;;;46.50;;
30036;SDS011;36325;51.512;-0.382;2023-09-07T02:43:45;70.85;;;45.13;;
30036;SDS011;36325;51.512;-0.382;2023-09-07T02:46:13;77.35;;;47.25;;
30036;SDS011;36325;51.512;-0.382;2023-09-07T02:48:41;73.68;;;47.80;;
30036;SDS011;36325;51.512;-0.382;2023-09-07T02:51:09;71.95;;;46.28;;
30036;SDS011;36325;51.512;-0.382;2023-09-07T02:53:36;75.40;;;48.10;;
30036;SDS011;36325;51.512;-0.382;2023-09-07T02:56:04;76.03;;;45.83;;
30036;SDS011;36325;51.512;-0.382;2023-09-07T02:58:32;78.97;;;47.55;;
30036;SDS011;36325;51.512;-0.382;2023-09-07T03:01:05;82.78;;;48.70;;
30036;SDS011;36325;51.512;-0.382;2023-09-07T03:03:40;81.88;;;48.65;;
30036;SDS011;36325;51.512;-0.382;2023-09-07T03:06:13;81.45;;;47.95;;
30036;SDS011;36325;51.512;-0.382;2023-09-07T03:08:46;88.93;;;48.80;;
30036;SDS011;36325;51.512;-0.382;2023-09-07T03:11:15;75.50;;;47.65;;
30036;SDS011;36325;51.512;-0.382;2023-09-07T03:14:02;82.90;;;48.53;;
30036;SDS011;36325;51.512;-0.382;2023-09-07T03:16:30;78.68;;;47.35;;
30036;SDS011;36325;51.512;-0.382;2023-09-07T03:18:58;82.80;;;46.75;;
30036;SDS011;36325;51.512;-0.382;2023-09-07T03:21:26;77.78;;;47.20;;
30036;SDS011;36325;51.512;-0.382;2023-09-07T03:23:56;78.85;;;49.05;;
30036;SDS011;36325;51.512;-0.382;2023-09-07T03:26:27;85.75;;;50.20;;
30036;SDS011;36325;51.512;-0.382;2023-09-07T03:28:54;79.30;;;49.10;;
30036;SDS011;36325;51.512;-0.382;2023-09-07T03:31:22;86.65;;;49.70;;
30036;SDS011;36325;51.512;-0.382;2023-09-07T03:33:50;80.95;;;49.58;;
30036;SDS011;36325;51.512;-0.382;2023-09-07T03:36:17;87.03;;;49.10;;
30036;SDS011;36325;51.512;-0.382;2023-09-07T03:38:44;88.18;;;50.67;;
30036;SDS011;36325;51.512;-0.382;2023-09-07T03:41:14;81.10;;;49.90;;
30036;SDS011;36325;51.512;-0.382;2023-09-07T03:43:43;83.45;;;52.03;;
30036;SDS011;36325;51.512;-0.382;2023-09-07T03:46:11;82.53;;;50.35;;
30036;SDS011;36325;51.512;-0.382;2023-09-07T03:48:38;84.45;;;52.80;;
30036;SDS011;36325;51.512;-0.382;2023-09-07T03:51:07;82.57;;;50.70;;
30036;SDS011;36325;51.512;-0.382;2023-09-07T03:53:36;83.15;;;52.00;;
30036;SDS011;36325;51.512;-0.382;2023-09-07T03:56:04;87.03;;;52.95;;
30036;SDS011;36325;51.512;-0.382;2023-09-07T03:58:33;92.03;;;53.97;;
30036;SDS011;36325;51.512;-0.382;2023-09-07T04:01:00;85.28;;;53.60;;
30036;SDS011;36325;51.512;-0.382;2023-09-07T04:03:29;81.57;;;53.58;;
30036;SDS011;36325;51.512;-0.382;2023-09-07T04:05:57;80.45;;;52.60;;
30036;SDS011;36325;51.512;-0.382;2023-09-07T04:08:24;95.18;;;56.60;;
30036;SDS011;36325;51.512;-0.382;2023-09-07T04:10:51;92.30;;;55.35;;
30036;SDS011;36325;51.512;-0.382;2023-09-07T04:13:19;88.95;;;54.70;;
30036;SDS011;36325;51.512;-0.382;2023-09-07T04:15:47;88.25;;;53.65;;
30036;SDS011;36325;51.512;-0.382;2023-09-07T04:18:15;97.40;;;57.10;;
30036;SDS011;36325;51.512;-0.382;2023-09-07T04:20:44;87.03;;;54.95;;
30036;SDS011;36325;51.512;-0.382;2023-09-07T04:23:13;84.72;;;54.97;;
30036;SDS011;36325;51.512;-0.382;2023-09-07T04:25:41;93.15;;;58.78;;
30036;SDS011;36325;51.512;-0.382;2023-09-07T04:28:10;90.22;;;57.42;;
30036;SDS011;36325;51.512;-0.382;2023-09-07T04:30:39;92.97;;;57.45;;
30036;SDS011;36325;51.512;-0.382;2023-09-07T04:33:08;105.47;;;60.33;;
30036;SDS011;36325;51.512;-0.382;2023-09-07T04:35:37;102.13;;;57.63;;
30036;SDS011;36325;51.512;-0.382;2023-09-07T04:38:06;95.80;;;57.40;;
30036;SDS011;36325;51.512;-0.382;2023-09-07T04:40:33;94.55;;;58.60;;
30036;SDS011;36325;51.512;-0.382;2023-09-07T04:43:01;96.47;;;57.72;;
30036;SDS011;36325;51.512;-0.382;2023-09-07T04:45:29;94.40;;;56.65;;
30036;SDS011;36325;51.512;-0.382;2023-09-07T04:47:56;94.45;;;58.15;;
30036;SDS011;36325;51.512;-0.382;2023-09-07T04:50:24;99.03;;;61.38;;
30036;SDS011;36325;51.512;-0.382;2023-09-07T04:52:52;92.80;;;57.50;;
30036;SDS011;36325;51.512;-0.382;2023-09-07T04:55:20;99.90;;;60.25;;
30036;SDS011;36325;51.512;-0.382;2023-09-07T04:57:47;97.20;;;59.45;;
30036;SDS011;36325;51.512;-0.382;2023-09-07T05:00:14;100.10;;;61.00;;
30036;SDS011;36325;51.512;-0.382;2023-09-07T05:02:43;102.47;;;59.67;;
30036;SDS011;36325;51.512;-0.382;2023-09-07T05:05:11;97.43;;;59.72;;
30036;SDS011;36325;51.512;-0.382;2023-09-07T05:07:38;98.18;;;60.88;;
30036;SDS011;36325;51.512;-0.382;2023-09-07T05:10:07;103.40;;;62.22;;
30036;SDS011;36325;51.512;-0.382;2023-09-07T05:12:35;113.05;;;62.10;;
30036;SDS011;36325;51.512;-0.382;2023-09-07T05:15:03;98.15;;;61.45;;
30036;SDS011;36325;51.512;-0.382;2023-09-07T05:17:33;112.45;;;64.93;;
30036;SDS011;36325;51.512;-0.382;2023-09-07T05:20:01;100.25;;;62.65;;
30036;SDS011;36325;51.512;-0.382;2023-09-07T05:22:29;100.70;;;61.80;;
30036;SDS011;36325;51.512;-0.382;2023-09-07T05:24:57;99.68;;;63.67;;
30036;SDS011;36325;51.512;-0.382;2023-09-07T05:27:27;111.03;;;63.90;;
30036;SDS011;36325;51.512;-0.382;2023-09-07T05:29:56;101.43;;;62.53;;
30036;SDS011;36325;51.512;-0.382;2023-09-07T05:32:24;105.28;;;64.63;;
30036;SDS011;36325;51.512;-0.382;2023-09-07T05:34:51;102.75;;;62.28;;
30036;SDS011;36325;51.512;-0.382;2023-09-07T05:37:19;107.57;;;62.28;;
30036;SDS011;36325;51.512;-0.382;2023-09-07T05:39:47;106.20;;;63.17;;
30036;SDS011;36325;51.512;-0.382;2023-09-07T05:42:15;104.25;;;61.20;;
30036;SDS011;36325;51.512;-0.382;2023-09-07T05:44:44;102.97;;;62.13;;
30036;SDS011;36325;51.512;-0.382;2023-09-07T05:47:12;102.85;;;61.00;;
30036;SDS011;36325;51.512;-0.382;2023-09-07T05:49:40;98.43;;;59.80;;
30036;SDS011;36325;51.512;-0.382;2023-09-07T05:52:08;104.50;;;61.38;;
30036;SDS011;36325;51.512;-0.382;2023-09-07T05:54:35;100.40;;;60.65;;
30036;SDS011;36325;51.512;-0.382;2023-09-07T05:57:03;104.20;;;60.10;;
30036;SDS011;36325;51.512;-0.382;2023-09-07T05:59:32;100.32;;;59.90;;
30036;SDS011;36325;51.512;-0.382;2023-09-07T06:02:00;100.03;;;62.00;;
30036;SDS011;36325;51.512;-0.382;2023-09-07T06:04:31;109.00;;;60.97;;
30036;SDS011;36325;51.512;-0.382;2023-09-07T06:06:59;99.43;;;59.60;;
30036;SDS011;36325;51.512;-0.382;2023-09-07T06:09:26;99.00;;;58.75;;
30036;SDS011;36325;51.512;-0.382;2023-09-07T06:11:56;96.20;;;58.35;;
30036;SDS011;36325;51.512;-0.382;2023-09-07T06:14:23;97.55;;;58.70;;
30036;SDS011;36325;51.512;-0.382;2023-09-07T06:16:50;97.22;;;59.25;;
30036;SDS011;36325;51.512;-0.382;2023-09-07T06:19:18;99.18;;;56.83;;
30036;SDS011;36325;51.512;-0.382;2023-09-07T06:21:46;94.00;;;57.65;;
30036;SDS011;36325;51.512;-0.382;2023-09-07T06:24:14;95.90;;;57.92;;
30036;SDS011;36325;51.512;-0.382;2023-09-07T06:26:41;88.25;;;55.08;;
30036;SDS011;36325;51.512;-0.382;2023-09-07T06:29:12;100.65;;;56.55;;
30036;SDS011;36325;51.512;-0.382;2023-09-07T06:31:41;89.60;;;53.97;;
30036;SDS011;36325;51.512;-0.382;2023-09-07T06:34:09;90.82;;;55.17;;
30036;SDS011;36325;51.512;-0.382;2023-09-07T06:36:37;93.35;;;56.35;;
30036;SDS011;36325;51.512;-0.382;2023-09-07T06:39:14;87.57;;;49.83;;
30036;SDS011;36325;51.512;-0.382;2023-09-07T06:41:45;92.82;;;54.47;;
30036;SDS011;36325;51.512;-0.382;2023-09-07T06:44:14;78.28;;;47.40;;
30036;SDS011;36325;51.512;-0.382;2023-09-07T06:46:43;92.20;;;54.05;;
30036;SDS011;36325;51.512;-0.382;2023-09-07T06:49:12;86.90;;;52.40;;
30036;SDS011;36325;51.512;-0.382;2023-09-07T06:51:40;84.47;;;51.35;;
30036;SDS011;36325;51.512;-0.382;2023-09-07T06:54:09;83.28;;;50.63;;
30036;SDS011;36325;51.512;-0.382;2023-09-07T06:56:37;85.28;;;52.20;;
30036;SDS011;36325;51.512;-0.382;2023-09-07T06:59:04;77.60;;;48.30;;
30036;SDS011;36325;51.512;-0.382;2023-09-07T07:01:32;82.38;;;50.22;;
30036;SDS011;36325;51.512;-0.382;2023-09-07T07:04:04;70.72;;;47.42;;
30036;SDS011;36325;51.512;-0.382;2023-09-07T07:06:32;77.50;;;47.88;;
30036;SDS011;36325;51.512;-0.382;2023-09-07T07:09:00;78.50;;;45.40;;
30036;SDS011;36325;51.512;-0.382;2023-09-07T07:11:28;74.60;;;44.53;;
30036;SDS011;36325;51.512;-0.382;2023-09-07T07:13:56;72.85;;;44.30;;
30036;SDS011;36325;51.512;-0.382;2023-09-07T07:16:23;69.22;;;41.47;;
30036;SDS011;36325;51.512;-0.382;2023-09-07T07:18:52;65.00;;;40.70;;
30036;SDS011;36325;51.512;-0.382;2023-09-07T07:21:20;67.80;;;40.47;;
30036;SDS011;36325;51.512;-0.382;2023-09-07T07:23:47;64.13;;;40.40;;
30036;SDS011;36325;51.512;-0.382;2023-09-07T07:26:15;57.53;;;36.60;;
30036;SDS011;36325;51.512;-0.382;2023-09-07T07:28:44;60.97;;;36.53;;
30036;SDS011;36325;51.512;-0.382;2023-09-07T07:31:11;53.30;;;34.30;;
30036;SDS011;36325;51.512;-0.382;2023-09-07T07:33:44;58.88;;;33.65;;
30036;SDS011;36325;51.512;-0.382;2023-09-07T07:36:13;55.53;;;34.17;;
30036;SDS011;36325;51.512;-0.382;2023-09-07T07:38:41;47.95;;;31.25;;
30036;SDS011;36325;51.512;-0.382;2023-09-07T07:41:09;48.17;;;30.30;;
30036;SDS011;36325;51.512;-0.382;2023-09-07T07:43:37;43.28;;;29.00;;
30036;SDS011;36325;51.512;-0.382;2023-09-07T07:46:05;46.00;;;30.00;;
30036;SDS011;36325;51.512;-0.382;2023-09-07T07:48:33;49.08;;;30.65;;
30036;SDS011;36325;51.512;-0.382;2023-09-07T07:51:04;55.93;;;30.00;;
30036;SDS011;36325;51.512;-0.382;2023-09-07T07:53:34;43.83;;;29.48;;
30036;SDS011;36325;51.512;-0.382;2023-09-07T07:56:01;49.20;;;31.48;;
30036;SDS011;36325;51.512;-0.382;2023-09-07T07:58:30;49.15;;;29.67;;
30036;SDS011;36325;51.512;-0.382;2023-09-07T08:00:57;44.33;;;28.85;;
30036;SDS011;36325;51.512;-0.382;2023-09-07T08:03:29;48.53;;;32.15;;
30036;SDS011;36325;51.512;-0.382;2023-09-07T08:05:58;46.75;;;29.67;;
30036;SDS011;36325;51.512;-0.382;2023-09-07T08:08:25;41.47;;;29.45;;
30036;SDS011;36325;51.512;-0.382;2023-09-07T08:10:53;44.20;;;29.60;;
30036;SDS011;36325;51.512;-0.382;2023-09-07T08:13:21;46.75;;;29.25;;
30036;SDS011;36325;51.512;-0.382;2023-09-07T08:15:50;46.00;;;28.33;;
30036;SDS011;36325;51.512;-0.382;2023-09-07T08:18:17;44.42;;;27.35;;
30036;SDS011;36325;51.512;-0.382;2023-09-07T08:20:45;41.13;;;26.85;;
30036;SDS011;36325;51.512;-0.382;2023-09-07T08:23:12;37.47;;;25.88;;
30036;SDS011;36325;51.512;-0.382;2023-09-07T08:25:40;43.03;;;26.35;;
30036;SDS011;36325;51.512;-0.382;2023-09-07T08:28:18;35.67;;;24.65;;
30036;SDS011;36325;51.512;-0.382;2023-09-07T08:30:49;38.63;;;25.23;;
30036;SDS011;36325;51.512;-0.382;2023-09-07T08:33:21;36.88;;;24.48;;
30036;SDS011;36325;51.512;-0.382;2023-09-07T08:35:53;40.63;;;24.20;;
30036;SDS011;36325;51.512;-0.382;2023-09-07T08:38:22;36.28;;;24.80;;
30036;SDS011;36325;51.512;-0.382;2023-09-07T08:40:56;35.58;;;24.23;;
30036;SDS011;36325;51.512;-0.382;2023-09-07T08:43:29;35.25;;;23.75;;
30036;SDS011;36325;51.512;-0.382;2023-09-07T08:46:04;35.85;;;23.15;;
30036;SDS011;36325;51.512;-0.382;2023-09-07T08:48:40;31.73;;;22.65;;
30036;SDS011;36325;51.512;-0.382;2023-09-07T08:51:10;37.17;;;23.10;;
30036;SDS011;36325;51.512;-0.382;2023-09-07T08:53:51;29.20;;;20.47;;
30036;SDS011;36325;51.512;-0.382;2023-09-07T08:56:18;30.23;;;20.90;;
30036;SDS011;36325;51.512;-0.382;2023-09-07T09:01:17;35.88;;;20.38;;
30036;SDS011;36325;51.512;-0.382;2023-09-07T09:03:50;30.55;;;19.00;;
30036;SDS011;36325;51.512;-0.382;2023-09-07T09:06:19;25.33;;;17.85;;
30036;SDS011;36325;51.512;-0.382;2023-09-07T09:08:51;28.75;;;18.30;;
30036;SDS011;36325;51.512;-0.382;2023-09-07T09:11:24;27.65;;;19.73;;
30036;SDS011;36325;51.512;-0.382;2023-09-07T09:13:53;28.38;;;18.73;;
30036;SDS011;36325;51.512;-0.382;2023-09-07T09:16:22;27.88;;;17.42;;
30036;SDS011;36325;51.512;-0.382;2023-09-07T09:18:50;24.08;;;16.75;;
30036;SDS011;36325;51.512;-0.382;2023-09-07T09:21:23;18.95;;;14.88;;
30036;SDS011;36325;51.512;-0.382;2023-09-07T09:24:19;30.50;;;18.08;;
30036;SDS011;36325;51.512;-0.382;2023-09-07T09:26:47;30.23;;;17.50;;
30036;SDS011;36325;51.512;-0.382;2023-09-07T09:29:14;27.20;;;17.73;;
30036;SDS011;36325;51.512;-0.382;2023-09-07T09:31:44;27.23;;;16.95;;
30036;SDS011;36325;51.512;-0.382;2023-09-07T09:34:12;22.60;;;17.42;;
30036;SDS011;36325;51.512;-0.382;2023-09-07T09:36:41;25.65;;;16.38;;
30036;SDS011;36325;51.512;-0.382;2023-09-07T09:39:09;26.70;;;14.93;;
30036;SDS011;36325;51.512;-0.382;2023-09-07T09:41:37;25.25;;;14.15;;
30036;SDS011;36325;51.512;-0.382;2023-09-07T09:44:06;26.38;;;14.93;;
30036;SDS011;36325;51.512;-0.382;2023-09-07T09:46:34;19.02;;;14.00;;
30036;SDS011;36325;51.512;-0.382;2023-09-07T09:49:22;19.70;;;13.90;;
30036;SDS011;36325;51.512;-0.382;2023-09-07T09:51:50;22.42;;;13.80;;
30036;SDS011;36325;51.512;-0.382;2023-09-07T09:54:17;22.83;;;14.25;;
30036;SDS011;36325;51.512;-0.382;2023-09-07T09:56:44;17.60;;;13.05;;
30036;SDS011;36325;51.512;-0.382;2023-09-07T09:59:13;23.73;;;15.85;;
30036;SDS011;36325;51.512;-0.382;2023-09-07T10:01:46;17.25;;;13.88;;
30036;SDS011;36325;51.512;-0.382;2023-09-07T10:04:17;19.77;;;14.00;;
30036;SDS011;36325;51.512;-0.382;2023-09-07T10:06:57;24.80;;;13.80;;
30036;SDS011;36325;51.512;-0.382;2023-09-07T10:09:34;25.05;;;12.63;;
30036;SDS011;36325;51.512;-0.382;2023-09-07T10:12:04;20.67;;;12.48;;
30036;SDS011;36325;51.512;-0.382;2023-09-07T10:14:40;20.15;;;13.52;;
30036;SDS011;36325;51.512;-0.382;2023-09-07T10:17:08;18.92;;;12.55;;
30036;SDS011;36325;51.512;-0.382;2023-09-07T10:19:36;18.73;;;12.70;;
30036;SDS011;36325;51.512;-0.382;2023-09-07T10:22:06;16.75;;;11.15;;
30036;SDS011;36325;51.512;-0.382;2023-09-07T10:24:34;23.23;;;12.77;;
30036;SDS011;36325;51.512;-0.382;2023-09-07T10:27:03;19.13;;;12.73;;
30036;SDS011;36325;51.512;-0.382;2023-09-07T10:32:42;21.08;;;12.85;;
30036;SDS011;36325;51.512;-0.382;2023-09-07T10:35:16;21.27;;;12.90;;
30036;SDS011;36325;51.512;-0.382;2023-09-07T10:37:48;19.63;;;12.35;;
30036;SDS011;36325;51.512;-0.382;2023-09-07T10:40:18;20.13;;;13.45;;
30036;SDS011;36325;51.512;-0.382;2023-09-07T10:42:48;23.48;;;13.82;;
30036;SDS011;36325;51.512;-0.382;2023-09-07T10:45:16;17.65;;;12.63;;
30036;SDS011;36325;51.512;-0.382;2023-09-07T10:47:44;20.67;;;12.68;;
30036;SDS011;36325;51.512;-0.382;2023-09-07T10:50:12;20.88;;;12.52;;
30036;SDS011;36325;51.512;-0.382;2023-09-07T10:52:40;22.17;;;12.93;;
30036;SDS011;36325;51.512;-0.382;2023-09-07T10:55:12;16.63;;;12.02;;
30036;SDS011;36325;51.512;-0.382;2023-09-07T10:57:44;24.30;;;13.70;;
30036;SDS011;36325;51.512;-0.382;2023-09-07T11:00:13;18.30;;;12.55;;
30036;SDS011;36325;51.512;-0.382;2023-09-07T11:02:51;17.45;;;11.65;;
30036;SDS011;36325;51.512;-0.382;2023-09-07T11:05:23;15.07;;;11.27;;
30036;SDS011;36325;51.512;-0.382;2023-09-07T11:08:00;16.98;;;11.82;;
30036;SDS011;36325;51.512;-0.382;2023-09-07T11:10:28;14.90;;;11.20;;
30036;SDS011;36325;51.512;-0.382;2023-09-07T11:13:01;21.23;;;11.53;;
30036;SDS011;36325;51.512;-0.382;2023-09-07T11:15:31;18.27;;;11.85;;
30036;SDS011;36325;51.512;-0.382;2023-09-07T11:18:20;19.40;;;12.20;;
30036;SDS011;36325;51.512;-0.382;2023-09-07T11:20:49;17.13;;;11.57;;
30036;SDS011;36325;51.512;-0.382;2023-09-07T11:23:19;23.48;;;10.95;;
30036;SDS011;36325;51.512;-0.382;2023-09-07T11:25:47;15.68;;;8.13;;
30036;SDS011;36325;51.512;-0.382;2023-09-07T11:28:18;10.52;;;6.57;;
30036;SDS011;36325;51.512;-0.382;2023-09-07T11:30:53;10.75;;;6.63;;
30036;SDS011;36325;51.512;-0.382;2023-09-07T11:33:24;13.57;;;7.95;;
30036;SDS011;36325;51.512;-0.382;2023-09-07T11:35:52;12.13;;;6.68;;
30036;SDS011;36325;51.512;-0.382;2023-09-07T11:40:59;13.57;;;7.50;;
30036;SDS011;36325;51.512;-0.382;2023-09-07T11:43:27;19.80;;;6.22;;
30036;SDS011;36325;51.512;-0.382;2023-09-07T11:45:55;12.10;;;8.02;;
30036;SDS011;36325;51.512;-0.382;2023-09-07T11:48:25;21.92;;;7.30;;
30036;SDS011;36325;51.512;-0.382;2023-09-07T11:50:55;14.63;;;8.25;;
30036;SDS011;36325;51.512;-0.382;2023-09-07T11:53:23;10.93;;;6.60;;
30036;SDS011;36325;51.512;-0.382;2023-09-07T11:55:50;23.38;;;8.77;;
30036;SDS011;36325;51.512;-0.382;2023-09-07T11:58:19;12.02;;;8.90;;
30036;SDS011;36325;51.512;-0.382;2023-09-07T12:00:47;11.20;;;7.68;;
30036;SDS011;36325;51.512;-0.382;2023-09-07T12:03:14;14.13;;;7.80;;
30036;SDS011;36325;51.512;-0.382;2023-09-07T12:05:41;14.57;;;7.47;;
30036;SDS011;36325;51.512;-0.382;2023-09-07T12:08:11;15.70;;;9.00;;
30036;SDS011;36325;51.512;-0.382;2023-09-07T12:10:38;17.50;;;7.70;;
30036;SDS011;36325;51.512;-0.382;2023-09-07T12:13:06;16.17;;;9.65;;
30036;SDS011;36325;51.512;-0.382;2023-09-07T12:15:34;19.35;;;10.20;;
30036;SDS011;36325;51.512;-0.382;2023-09-07T12:18:02;14.70;;;9.18;;
30036;SDS011;36325;51.512;-0.382;2023-09-07T12:20:31;12.80;;;8.52;;
30036;SDS011;36325;51.512;-0.382;2023-09-07T12:23:00;17.17;;;9.18;;
30036;SDS011;36325;51.512;-0.382;2023-09-07T12:25:28;18.33;;;11.13;;
30036;SDS011;36325;51.512;-0.382;2023-09-07T12:27:56;16.50;;;9.38;;
30036;SDS011;36325;51.512;-0.382;2023-09-07T12:30:23;16.70;;;8.45;;
30036;SDS011;36325;51.512;-0.382;2023-09-07T12:32:51;16.20;;;9.27;;
30036;SDS011;36325;51.512;-0.382;2023-09-07T12:35:20;10.30;;;8.23;;
30036;SDS011;36325;51.512;-0.382;2023-09-07T12:37:47;22.50;;;10.40;;
30036;SDS011;36325;51.512;-0.382;2023-09-07T12:40:15;20.02;;;9.80;;
30036;SDS011;36325;51.512;-0.382;2023-09-07T12:42:44;11.88;;;8.23;;
30036;SDS011;36325;51.512;-0.382;2023-09-07T12:45:12;18.50;;;7.85;;
30036;SDS011;36325;51.512;-0.382;2023-09-07T12:47:44;16.77;;;7.65;;
30036;SDS011;36325;51.512;-0.382;2023-09-07T12:50:11;13.68;;;7.95;;
30036;SDS011;36325;51.512;-0.382;2023-09-07T12:52:40;11.02;;;6.38;;
30036;SDS011;36325;51.512;-0.382;2023-09-07T12:55:12;10.38;;;7.63;;
30036;SDS011;36325;51.512;-0.382;2023-09-07T12:57:39;8.50;;;7.60;;
30036;SDS011;36325;51.512;-0.382;2023-09-07T13:00:07;8.82;;;6.63;;
30036;SDS011;36325;51.512;-0.382;2023-09-07T13:02:40;15.15;;;7.88;;
30036;SDS011;36325;51.512;-0.382;2023-09-07T13:05:08;11.93;;;6.68;;
30036;SDS011;36325;51.512;-0.382;2023-09-07T13:07:36;9.95;;;6.38;;
30036;SDS011;36325;51.512;-0.382;2023-09-07T13:10:05;9.02;;;6.78;;
30036;SDS011;36325;51.512;-0.382;2023-09-07T13:12:33;11.55;;;7.28;;
30036;SDS011;36325;51.512;-0.382;2023-09-07T13:15:01;12.57;;;6.30;;
30036;SDS011;36325;51.512;-0.382;2023-09-07T13:17:30;9.30;;;5.85;;
30036;SDS011;36325;51.512;-0.382;2023-09-07T13:19:57;11.48;;;5.90;;
30036;SDS011;36325;51.512;-0.382;2023-09-07T13:22:25;9.90;;;6.20;;
30036;SDS011;36325;51.512;-0.382;2023-09-07T13:24:53;7.97;;;6.03;;
30036;SDS011;36325;51.512;-0.382;2023-09-07T13:27:20;6.95;;;6.00;;
30036;SDS011;36325;51.512;-0.382;2023-09-07T13:29:48;9.23;;;6.43;;
30036;SDS011;36325;51.512;-0.382;2023-09-07T13:32:20;15.10;;;5.90;;
30036;SDS011;36325;51.512;-0.382;2023-09-07T13:34:47;19.55;;;7.15;;
30036;SDS011;36325;51.512;-0.382;2023-09-07T13:37:15;8.27;;;6.15;;
30036;SDS011;36325;51.512;-0.382;2023-09-07T13:39:43;9.82;;;6.70;;
30036;SDS011;36325;51.512;-0.382;2023-09-07T13:42:12;10.07;;;6.43;;
30036;SDS011;36325;51.512;-0.382;2023-09-07T13:44:53;12.45;;;7.55;;
30036;SDS011;36325;51.512;-0.382;2023-09-07T13:47:20;9.43;;;7.10;;
30036;SDS011;36325;51.512;-0.382;2023-09-07T13:49:48;8.63;;;5.47;;
30036;SDS011;36325;51.512;-0.382;2023-09-07T13:52:16;8.80;;;6.05;;
30036;SDS011;36325;51.512;-0.382;2023-09-07T13:54:43;7.50;;;5.85;;
30036;SDS011;36325;51.512;-0.382;2023-09-07T13:57:11;10.90;;;6.28;;
30036;SDS011;36325;51.512;-0.382;2023-09-07T13:59:39;8.75;;;6.13;;
30036;SDS011;36325;51.512;-0.382;2023-09-07T14:02:06;8.43;;;6.28;;
30036;SDS011;36325;51.512;-0.382;2023-09-07T14:04:34;13.80;;;6.35;;
30036;SDS011;36325;51.512;-0.382;2023-09-07T14:07:05;9.55;;;5.00;;
30036;SDS011;36325;51.512;-0.382;2023-09-07T14:09:33;6.78;;;5.22;;
30036;SDS011;36325;51.512;-0.382;2023-09-07T14:12:00;8.18;;;5.97;;
30036;SDS011;36325;51.512;-0.382;2023-09-07T14:14:28;18.95;;;6.72;;
30036;SDS011;36325;51.512;-0.382;2023-09-07T14:16:56;12.18;;;6.88;;
30036;SDS011;36325;51.512;-0.382;2023-09-07T14:19:27;6.75;;;5.07;;
30036;SDS011;36325;51.512;-0.382;2023-09-07T14:21:58;8.18;;;5.82;;
30036;SDS011;36325;51.512;-0.382;2023-09-07T14:24:25;7.00;;;5.50;;
30036;SDS011;36325;51.512;-0.382;2023-09-07T14:26:55;18.52;;;6.13;;
30036;SDS011;36325;51.512;-0.382;2023-09-07T14:29:22;15.25;;;6.25;;
30036;SDS011;36325;51.512;-0.382;2023-09-07T14:31:49;10.85;;;5.75;;